| time (UTC) | temp C | wind direction | speed KPH | gust KPH | rain 1hr cm | rain 24hr cm | rain mn cm | humidity % | barometer mb |
| 20260508034042 | 8 | 57 | 3.2 | 8.0 | 0.00 | 0.89 | 0.28 | 95 | 1016.5 |
| 20260508033543 | 8 | 46 | 3.2 | 6.4 | 0.00 | 0.89 | 0.28 | 95 | 1016.3 |
| 20260508033050 | 8 | 82 | 1.6 | 4.8 | 0.00 | 0.89 | 0.28 | 95 | 1016.2 |
| 20260508032544 | 8 | 83 | 1.6 | 4.8 | 0.00 | 0.89 | 0.28 | 95 | 1016.2 |
| 20260508032043 | 8 | 73 | 1.6 | 4.8 | 0.00 | 0.89 | 0.28 | 95 | 1016.3 |
| 20260508031554 | 8 | 67 | 0.0 | 4.8 | 0.00 | 0.89 | 0.28 | 95 | 1016.2 |
| 20260508031043 | 8 | 0 | 0.0 | 6.4 | 0.00 | 0.89 | 0.28 | 95 | 1016.1 |
| 20260508030543 | 8 | 66 | 1.6 | 6.4 | 0.00 | 0.89 | 0.28 | 95 | 1016.1 |
| 20260508030058 | 8 | 107 | 3.2 | 6.4 | 0.00 | 0.89 | 0.28 | 95 | 1016.2 |
| 20260508025542 | 8 | 97 | 3.2 | 6.4 | 0.00 | 0.89 | 0.28 | 95 | 1016.0 |
| 20260508025044 | 8 | 90 | 1.6 | 6.4 | 0.00 | 0.89 | 0.28 | 95 | 1016.0 |
| 20260508024558 | 8 | 113 | 1.6 | 3.2 | 0.00 | 0.89 | 0.28 | 95 | 1016.0 |
| 20260508024043 | 8 | 0 | 0.0 | 3.2 | 0.00 | 0.89 | 0.28 | 95 | 1015.9 |
| 20260508023544 | 8 | 0 | 0.0 | 3.2 | 0.00 | 0.89 | 0.28 | 95 | 1015.9 |
| 20260508023051 | 8 | 113 | 0.0 | 3.2 | 0.00 | 0.89 | 0.28 | 95 | 1015.9 |
| 20260508022542 | 8 | 0 | 0.0 | 1.6 | 0.00 | 0.89 | 0.28 | 95 | 1015.9 |
| 20260508022045 | 8 | 0 | 0.0 | 1.6 | 0.00 | 0.89 | 0.28 | 95 | 1016.0 |
| 20260508021553 | 8 | 0 | 0.0 | 3.2 | 0.00 | 0.89 | 0.28 | 95 | 1015.9 |
| 20260508021044 | 8 | 0 | 0.0 | 3.2 | 0.05 | 0.89 | 0.28 | 95 | 1016.1 |
| 20260508020543 | 8 | 0 | 0.0 | 3.2 | 0.08 | 0.89 | 0.28 | 95 | 1016.0 |
| 20260508020051 | 8 | 0 | 0.0 | 3.2 | 0.18 | 0.89 | 0.28 | 95 | 1016.1 |
| 20260508015543 | 8 | 0 | 0.0 | 3.2 | 0.25 | 0.89 | 0.28 | 95 | 1016.1 |
| 20260508015043 | 8 | 0 | 0.0 | 3.2 | 0.28 | 0.89 | 0.28 | 95 | 1016.1 |
| 20260508014553 | 8 | 0 | 0.0 | 4.8 | 0.28 | 0.89 | 0.28 | 95 | 1016.0 |
| 20260508014043 | 8 | 0 | 0.0 | 4.8 | 0.28 | 0.89 | 0.28 | 94 | 1016.0 |
| 20260508013544 | 8 | 113 | 1.6 | 4.8 | 0.28 | 0.89 | 0.28 | 94 | 1016.0 |
| 20260508013058 | 8 | 106 | 1.6 | 4.8 | 0.28 | 0.89 | 0.28 | 94 | 1015.9 |
| 20260508012544 | 8 | 111 | 1.6 | 11.3 | 0.28 | 0.89 | 0.28 | 94 | 1015.9 |
| 20260508012043 | 8 | 70 | 1.6 | 11.3 | 0.28 | 0.89 | 0.28 | 94 | 1015.8 |
| 20260508011554 | 8 | 94 | 3.2 | 6.4 | 0.25 | 0.86 | 0.25 | 94 | 1015.8 |
| 20260508011042 | 8 | 63 | 0.0 | 1.6 | 0.20 | 0.84 | 0.20 | 94 | 1016.0 |
| 20260508010542 | 8 | 0 | 0.0 | 3.2 | 0.18 | 0.81 | 0.18 | 94 | 1016.1 |
| 20260508010050 | 8 | 63 | 0.0 | 3.2 | 0.08 | 0.69 | 0.08 | 93 | 1016.1 |
| 20260508005543 | 8 | 63 | 0.0 | 3.2 | 0.00 | 0.64 | 0.00 | 93 | 1016.1 |
| 20260508005048 | 8 | 0 | 0.0 | 3.2 | 0.00 | 0.61 | 0.00 | 93 | 1016.0 |
| 20260508004553 | 8 | 0 | 0.0 | 6.4 | 0.00 | 0.61 | 0.00 | 93 | 1016.0 |
| 20260508004043 | 8 | 0 | 1.6 | 6.4 | 0.00 | 0.61 | 0.00 | 93 | 1016.0 |
| 20260508003543 | 8 | 90 | 1.6 | 6.4 | 0.00 | 0.61 | 0.00 | 94 | 1015.9 |
| 20260508003051 | 8 | 0 | 0.0 | 6.4 | 0.00 | 0.61 | 0.00 | 94 | 1016.0 |
| 20260508002543 | 8 | 0 | 0.0 | 6.4 | 0.00 | 0.61 | 0.00 | 94 | 1016.0 |
| 20260508002045 | 8 | 119 | 1.6 | 9.7 | 0.00 | 0.61 | 0.00 | 93 | 1016.0 |
| 20260508001554 | 8 | 77 | 1.6 | 9.7 | 0.00 | 0.61 | 0.00 | 93 | 1015.9 |
| 20260508001043 | 8 | 97 | 4.8 | 9.7 | 0.00 | 0.61 | 0.00 | 93 | 1015.9 |
| 20260508000544 | 8 | 100 | 3.2 | 9.7 | 0.00 | 0.61 | 0.00 | 93 | 1016.0 |
| 20260508000053 | 8 | 92 | 3.2 | 6.4 | 0.00 | 0.61 | 0.00 | 93 | 1016.1 |
| 20260507235543 | 8 | 0 | 1.6 | 4.8 | 0.00 | 0.61 | 0.00 | 93 | 1016.1 |
| 20260507235043 | 8 | 0 | 0.0 | 6.4 | 0.00 | 0.61 | 0.00 | 93 | 1016.1 |
| 20260507234557 | 8 | 83 | 0.0 | 6.4 | 0.00 | 0.61 | 0.00 | 93 | 1016.1 |
| 20260507234043 | 8 | 80 | 1.6 | 11.3 | 0.00 | 0.61 | 0.00 | 93 | 1016.1 |
| 20260507233543 | 8 | 103 | 1.6 | 11.3 | 0.00 | 0.61 | 0.00 | 93 | 1016.1 |
| 20260507233055 | 8 | 60 | 3.2 | 12.9 | 0.00 | 0.61 | 0.00 | 93 | 1016.1 |
| 20260507232547 | 8 | 67 | 4.8 | 12.9 | 0.00 | 0.61 | 0.00 | 93 | 1016.2 |
| 20260507232042 | 8 | 56 | 3.2 | 11.3 | 0.00 | 0.61 | 0.00 | 93 | 1016.2 |
| 20260507231554 | 9 | 95 | 6.4 | 12.9 | 0.00 | 0.61 | 0.00 | 93 | 1016.3 |
| 20260507231043 | 9 | 86 | 3.2 | 12.9 | 0.00 | 0.61 | 0.00 | 93 | 1016.2 |
| 20260507230544 | 9 | 86 | 4.8 | 12.9 | 0.00 | 0.61 | 0.00 | 93 | 1016.3 |
| 20260507230058 | 9 | 104 | 4.8 | 12.9 | 0.00 | 0.61 | 0.00 | 93 | 1016.2 |
| 20260507225543 | 9 | 93 | 3.2 | 9.7 | 0.00 | 0.61 | 0.00 | 93 | 1016.2 |
| 20260507225044 | 9 | 101 | 3.2 | 9.7 | 0.00 | 0.61 | 0.00 | 93 | 1016.3 |
| 20260507224554 | 9 | 81 | 1.6 | 8.0 | 0.00 | 0.61 | 0.00 | 93 | 1016.2 |
| 20260507224043 | 9 | 36 | 1.6 | 6.4 | 0.00 | 0.61 | 0.00 | 93 | 1016.2 |
| 20260507223545 | 9 | 36 | 1.6 | 6.4 | 0.00 | 0.61 | 0.00 | 93 | 1016.3 |
| 20260507223053 | 9 | 0 | 1.6 | 6.4 | 0.00 | 0.61 | 0.00 | 93 | 1016.2 |
| 20260507222543 | 9 | 0 | 0.0 | 6.4 | 0.00 | 0.61 | 0.00 | 93 | 1016.2 |
| 20260507222043 | 9 | 0 | 0.0 | 6.4 | 0.00 | 0.61 | 0.00 | 93 | 1016.3 |
| 20260507221553 | 9 | 0 | 0.0 | 6.4 | 0.00 | 0.61 | 0.00 | 93 | 1016.2 |
| 20260507221048 | 9 | 0 | 0.0 | 6.4 | 0.00 | 0.61 | 0.00 | 93 | 1016.1 |
| 20260507220543 | 9 | 0 | 0.0 | 9.7 | 0.00 | 0.61 | 0.00 | 93 | 1015.9 |
| 20260507220058 | 9 | 5 | 1.6 | 9.7 | 0.00 | 0.61 | 0.00 | 93 | 1015.9 |
| 20260507215544 | 9 | 101 | 3.2 | 12.9 | 0.00 | 0.61 | 0.61 | 93 | 1016.0 |
| 20260507215044 | 9 | 75 | 4.8 | 12.9 | 0.00 | 0.61 | 0.61 | 93 | 1016.0 |
| 20260507214552 | 9 | 98 | 4.8 | 12.9 | 0.00 | 0.61 | 0.61 | 93 | 1015.9 |
| 20260507214044 | 9 | 80 | 4.8 | 12.9 | 0.00 | 0.61 | 0.61 | 93 | 1016.0 |
| 20260507213543 | 9 | 86 | 1.6 | 9.7 | 0.00 | 0.61 | 0.61 | 93 | 1016.0 |
| 20260507213059 | 9 | 63 | 3.2 | 9.7 | 0.00 | 0.61 | 0.61 | 93 | 1015.9 |
| 20260507212543 | 9 | 71 | 3.2 | 6.4 | 0.00 | 0.61 | 0.61 | 93 | 1015.9 |
| 20260507212044 | 9 | 86 | 1.6 | 6.4 | 0.00 | 0.61 | 0.61 | 92 | 1015.9 |
| 20260507211554 | 9 | 88 | 1.6 | 9.7 | 0.00 | 0.61 | 0.61 | 92 | 1015.9 |
| 20260507211043 | 9 | 86 | 1.6 | 9.7 | 0.00 | 0.61 | 0.61 | 92 | 1015.7 |
| 20260507210545 | 9 | 63 | 3.2 | 12.9 | 0.00 | 0.61 | 0.61 | 92 | 1015.8 |
| 20260507210050 | 9 | 0 | 1.6 | 12.9 | 0.00 | 0.61 | 0.61 | 92 | 1015.7 |
| 20260507205544 | 10 | 54 | 6.4 | 12.9 | 0.00 | 0.61 | 0.61 | 92 | 1015.7 |
| 20260507205047 | 10 | 87 | 4.8 | 12.9 | 0.00 | 0.61 | 0.61 | 92 | 1015.7 |
| 20260507204601 | 10 | 106 | 4.8 | 16.1 | 0.00 | 0.61 | 0.61 | 92 | 1015.5 |
| 20260507204047 | 10 | 0 | 3.2 | 16.1 | 0.00 | 0.61 | 0.61 | 92 | 1015.4 |
| 20260507203544 | 10 | 102 | 4.8 | 16.1 | 0.00 | 0.61 | 0.61 | 91 | 1015.5 |
| 20260507203055 | 10 | 78 | 6.4 | 16.1 | 0.00 | 0.61 | 0.61 | 91 | 1015.3 |
| 20260507202545 | 10 | 71 | 6.4 | 12.9 | 0.00 | 0.61 | 0.61 | 91 | 1015.1 |
| 20260507202045 | 10 | 83 | 3.2 | 12.9 | 0.00 | 0.61 | 0.61 | 91 | 1015.1 |
| 20260507201602 | 10 | 77 | 4.8 | 12.9 | 0.00 | 0.61 | 0.61 | 90 | 1015.0 |
| 20260507201048 | 10 | 76 | 6.4 | 14.5 | 0.00 | 0.61 | 0.61 | 90 | 1015.1 |
| 20260507200548 | 10 | 86 | 4.8 | 14.5 | 0.00 | 0.61 | 0.61 | 90 | 1015.1 |
| 20260507200057 | 10 | 104 | 4.8 | 14.5 | 0.00 | 0.61 | 0.61 | 90 | 1015.0 |
| 20260507195548 | 10 | 78 | 6.4 | 14.5 | 0.00 | 0.61 | 0.61 | 90 | 1015.0 |
| 20260507195048 | 11 | 84 | 6.4 | 14.5 | 0.00 | 0.61 | 0.61 | 89 | 1015.0 |
| 20260507194603 | 11 | 106 | 6.4 | 12.9 | 0.00 | 0.61 | 0.61 | 89 | 1015.0 |
| 20260507194045 | 11 | 92 | 4.8 | 14.5 | 0.00 | 0.61 | 0.61 | 89 | 1014.9 |
| 20260507193548 | 11 | 65 | 3.2 | 14.5 | 0.00 | 0.61 | 0.61 | 89 | 1014.9 |
| 20260507193056 | 11 | 93 | 4.8 | 11.3 | 0.00 | 0.61 | 0.61 | 89 | 1014.8 |
| 20260507192545 | 11 | 92 | 3.2 | 11.3 | 0.00 | 0.61 | 0.61 | 89 | 1014.9 |
| 20260507192046 | 11 | 84 | 3.2 | 11.3 | 0.00 | 0.61 | 0.61 | 89 | 1015.0 |
| 20260507191614 | 11 | 105 | 4.8 | 11.3 | 0.00 | 0.61 | 0.61 | 89 | 1014.8 |
| 20260507191046 | 11 | 36 | 3.2 | 9.7 | 0.00 | 0.61 | 0.61 | 89 | 1014.8 |
| 20260507190548 | 11 | 65 | 1.6 | 6.4 | 0.00 | 0.61 | 0.61 | 89 | 1014.7 |
| 20260507190059 | 11 | 66 | 0.0 | 3.2 | 0.00 | 0.61 | 0.61 | 88 | 1014.7 |
| 20260507185544 | 11 | 0 | 0.0 | 3.2 | 0.00 | 0.61 | 0.61 | 88 | 1014.6 |
| 20260507185045 | 11 | 0 | 0.0 | 1.6 | 0.00 | 0.61 | 0.61 | 87 | 1014.6 |
| 20260507184603 | 11 | 0 | 0.0 | 3.2 | 0.00 | 0.61 | 0.61 | 86 | 1014.6 |
| 20260507184045 | 11 | 0 | 0.0 | 6.4 | 0.00 | 0.61 | 0.61 | 86 | 1014.5 |
| 20260507183548 | 11 | 0 | 0.0 | 8.0 | 0.00 | 0.61 | 0.61 | 86 | 1014.5 |
| 20260507183058 | 11 | 72 | 1.6 | 8.0 | 0.00 | 0.61 | 0.61 | 86 | 1014.3 |
| 20260507182546 | 11 | 18 | 1.6 | 8.0 | 0.00 | 0.61 | 0.61 | 85 | 1014.3 |
| 20260507182046 | 11 | 88 | 1.6 | 8.0 | 0.00 | 0.61 | 0.61 | 86 | 1014.1 |
| 20260507181556 | 11 | 352 | 1.6 | 8.0 | 0.00 | 0.61 | 0.61 | 85 | 1014.0 |
| 20260507181047 | 11 | 18 | 1.6 | 3.2 | 0.00 | 0.61 | 0.61 | 84 | 1013.9 |
| 20260507180547 | 11 | 0 | 0.0 | 3.2 | 0.00 | 0.61 | 0.61 | 84 | 1013.8 |
| 20260507180100 | 11 | 18 | 0.0 | 3.2 | 0.00 | 0.61 | 0.61 | 84 | 1013.8 |
| 20260507175548 | 11 | 0 | 0.0 | 1.6 | 0.00 | 0.61 | 0.61 | 83 | 1013.6 |
| 20260507175048 | 11 | 0 | 0.0 | 3.2 | 0.00 | 0.61 | 0.61 | 82 | 1013.4 |
| 20260507174558 | 11 | 18 | 0.0 | 3.2 | 0.00 | 0.61 | 0.61 | 81 | 1013.2 |
| 20260507174046 | 12 | 20 | 0.0 | 3.2 | 0.00 | 0.61 | 0.61 | 81 | 1013.1 |
| 20260507173546 | 12 | 0 | 0.0 | 3.2 | 0.00 | 0.61 | 0.61 | 81 | 1013.2 |
| 20260507173054 | 12 | 314 | 0.0 | 3.2 | 0.00 | 0.61 | 0.61 | 80 | 1013.2 |
| 20260507172546 | 12 | 0 | 0.0 | 3.2 | 0.00 | 0.61 | 0.61 | 79 | 1013.1 |
| 20260507172047 | 12 | 314 | 0.0 | 3.2 | 0.00 | 0.61 | 0.61 | 78 | 1012.9 |
| 20260507171556 | 12 | 0 | 0.0 | 3.2 | 0.00 | 0.61 | 0.61 | 77 | 1012.9 |
| 20260507171046 | 13 | 0 | 0.0 | 3.2 | 0.00 | 0.61 | 0.61 | 76 | 1013.0 |
| 20260507170546 | 13 | 0 | 0.0 | 4.8 | 0.00 | 0.61 | 0.61 | 76 | 1013.0 |
| 20260507170052 | 13 | 0 | 0.0 | 4.8 | 0.00 | 0.61 | 0.61 | 75 | 1013.0 |
| 20260507165545 | 13 | 325 | 1.6 | 9.7 | 0.00 | 0.61 | 0.61 | 75 | 1013.0 |
| 20260507165045 | 13 | 0 | 1.6 | 9.7 | 0.00 | 0.61 | 0.61 | 76 | 1013.1 |
| 20260507164610 | 13 | 277 | 1.6 | 17.7 | 0.00 | 0.61 | 0.61 | 76 | 1013.0 |
| 20260507164043 | 13 | 242 | 6.4 | 17.7 | 0.00 | 0.61 | 0.61 | 76 | 1013.1 |
| 20260507163547 | 13 | 274 | 9.7 | 17.7 | 0.00 | 0.61 | 0.61 | 74 | 1013.1 |
| 20260507163051 | 14 | 271 | 6.4 | 12.9 | 0.00 | 0.61 | 0.61 | 72 | 1013.1 |
| 20260507162547 | 14 | 284 | 4.8 | 11.3 | 0.00 | 0.61 | 0.61 | 71 | 1013.0 |
| 20260507162045 | 15 | 265 | 1.6 | 8.0 | 0.00 | 0.61 | 0.61 | 71 | 1013.0 |
| 20260507161554 | 15 | 277 | 1.6 | 8.0 | 0.00 | 0.61 | 0.61 | 71 | 1012.9 |
| 20260507161046 | 15 | 286 | 0.0 | 6.4 | 0.00 | 0.61 | 0.61 | 71 | 1012.9 |
| 20260507160547 | 15 | 0 | 0.0 | 9.7 | 0.00 | 0.61 | 0.61 | 71 | 1012.8 |
| 20260507160054 | 15 | 283 | 3.2 | 14.5 | 0.00 | 0.61 | 0.61 | 69 | 1012.8 |
| 20260507155545 | 16 | 317 | 8.0 | 14.5 | 0.00 | 0.61 | 0.61 | 66 | 1012.8 |
| 20260507155043 | 16 | 286 | 3.2 | 9.7 | 0.00 | 0.61 | 0.61 | 67 | 1012.7 |
| 20260507154554 | 16 | 244 | 3.2 | 6.4 | 0.00 | 0.61 | 0.61 | 69 | 1012.6 |
| 20260507154047 | 16 | 277 | 1.6 | 4.8 | 0.00 | 0.61 | 0.61 | 74 | 1012.6 |
| 20260507153547 | 16 | 325 | 0.0 | 4.8 | 0.00 | 0.61 | 0.61 | 74 | 1012.5 |
| 20260507153053 | 16 | 0 | 0.0 | 3.2 | 0.00 | 0.61 | 0.61 | 75 | 1012.5 |
| 20260507152545 | 16 | 0 | 0.0 | 3.2 | 0.00 | 0.61 | 0.61 | 75 | 1012.6 |
| 20260507152048 | 15 | 0 | 0.0 | 6.4 | 0.00 | 0.61 | 0.61 | 75 | 1012.5 |
| 20260507151552 | 15 | 95 | 0.0 | 6.4 | 0.00 | 0.61 | 0.61 | 76 | 1012.5 |
| 20260507151045 | 15 | 69 | 3.2 | 6.4 | 0.00 | 0.61 | 0.61 | 76 | 1012.6 |
| 20260507150545 | 15 | 0 | 3.2 | 6.4 | 0.00 | 0.61 | 0.61 | 77 | 1012.8 |
| 20260507150054 | 15 | 0 | 0.0 | 3.2 | 0.05 | 0.61 | 0.61 | 80 | 1012.7 |
| 20260507145544 | 15 | 0 | 1.6 | 3.2 | 0.18 | 0.61 | 0.61 | 83 | 1012.7 |
| 20260507145044 | 14 | 0 | 0.0 | 6.4 | 0.25 | 0.61 | 0.61 | 85 | 1012.7 |
| 20260507144552 | 13 | 0 | 1.6 | 6.4 | 0.41 | 0.61 | 0.61 | 88 | 1012.8 |
| 20260507144044 | 13 | 25 | 0.0 | 6.4 | 0.58 | 0.61 | 0.61 | 91 | 1012.8 |
| 20260507143543 | 12 | 295 | 0.0 | 6.4 | 0.58 | 0.61 | 0.61 | 91 | 1012.9 |
| 20260507143107 | 12 | 0 | 1.6 | 8.0 | 0.58 | 0.61 | 0.61 | 92 | 1012.8 |
| 20260507142543 | 12 | 298 | 3.2 | 8.0 | 0.58 | 0.61 | 0.61 | 92 | 1012.8 |
| 20260507142045 | 11 | 262 | 0.0 | 6.4 | 0.58 | 0.61 | 0.61 | 92 | 1012.9 |
| 20260507141607 | 11 | 0 | 1.6 | 9.7 | 0.58 | 0.61 | 0.61 | 90 | 1012.9 |
| 20260507141046 | 10 | 321 | 3.2 | 12.9 | 0.58 | 0.61 | 0.61 | 88 | 1013.0 |
| 20260507140547 | 10 | 300 | 4.8 | 12.9 | 0.61 | 0.61 | 0.61 | 86 | 1013.0 |
| 20260507140053 | 11 | 306 | 3.2 | 25.7 | 0.53 | 0.53 | 0.53 | 83 | 1013.0 |
| 20260507135544 | 12 | 303 | 6.4 | 25.7 | 0.43 | 0.43 | 0.43 | 79 | 1013.1 |
| 20260507135043 | 13 | 303 | 6.4 | 25.7 | 0.36 | 0.36 | 0.36 | 75 | 1012.8 |
| 20260507134555 | 15 | 290 | 9.7 | 24.1 | 0.15 | 0.15 | 0.15 | 73 | 1013.1 |
| 20260507134046 | 16 | 267 | 6.4 | 14.5 | 0.00 | 0.00 | 0.00 | 67 | 1012.8 |
| 20260507133544 | 16 | 259 | 4.8 | 14.5 | 0.00 | 0.00 | 0.00 | 68 | 1012.5 |
| 20260507133052 | 16 | 0 | 4.8 | 12.9 | 0.00 | 0.00 | 0.00 | 69 | 1012.6 |
| 20260507132543 | 16 | 277 | 3.2 | 11.3 | 0.00 | 0.00 | 0.00 | 67 | 1012.7 |
| 20260507132045 | 16 | 0 | 1.6 | 8.0 | 0.00 | 0.00 | 0.00 | 71 | 1012.7 |
| 20260507131610 | 16 | 215 | 0.0 | 12.9 | 0.00 | 0.00 | 0.00 | 71 | 1012.7 |
| 20260507131044 | 16 | 272 | 3.2 | 12.9 | 0.00 | 0.00 | 0.00 | 68 | 1012.8 |
| 20260507130543 | 17 | 268 | 3.2 | 11.3 | 0.00 | 0.00 | 0.00 | 65 | 1012.8 |
| 20260507130047 | 17 | 175 | 1.6 | 11.3 | 0.00 | 0.00 | 0.00 | 62 | 1012.8 |
| 20260507125543 | 17 | 131 | 3.2 | 14.5 | 0.00 | 0.00 | 0.00 | 62 | 1012.7 |
| 20260507125047 | 16 | 161 | 3.2 | 14.5 | 0.00 | 0.00 | 0.00 | 62 | 1012.8 |
| 20260507124551 | 16 | 218 | 6.4 | 14.5 | 0.00 | 0.00 | 0.00 | 60 | 1012.7 |
| 20260507124043 | 16 | 254 | 4.8 | 12.9 | 0.00 | 0.00 | 0.00 | 60 | 1012.7 |
| 20260507123543 | 16 | 220 | 1.6 | 12.9 | 0.00 | 0.00 | 0.00 | 63 | 1012.9 |
| 20260507123108 | 16 | 268 | 1.6 | 12.9 | 0.00 | 0.00 | 0.00 | 63 | 1012.8 |
| 20260507122543 | 16 | 332 | 4.8 | 12.9 | 0.00 | 0.00 | 0.00 | 63 | 1012.9 |
| 20260507122043 | 16 | 169 | 1.6 | 14.5 | 0.00 | 0.00 | 0.00 | 64 | 1013.0 |
| 20260507121555 | 16 | 130 | 1.6 | 14.5 | 0.00 | 0.00 | 0.00 | 63 | 1012.9 |
| 20260507121046 | 16 | 198 | 0.0 | 19.3 | 0.00 | 0.00 | 0.00 | 64 | 1012.8 |
| 20260507120545 | 16 | 246 | 6.4 | 19.3 | 0.00 | 0.00 | 0.00 | 62 | 1012.9 |
| 20260507120052 | 16 | 269 | 3.2 | 12.9 | 0.00 | 0.00 | 0.00 | 63 | 1013.0 |
| 20260507115543 | 16 | 269 | 4.8 | 17.7 | 0.00 | 0.00 | 0.00 | 64 | 1012.9 |
| 20260507115043 | 16 | 278 | 4.8 | 17.7 | 0.00 | 0.00 | 0.00 | 62 | 1012.9 |
| 20260507114553 | 16 | 243 | 3.2 | 16.1 | 0.00 | 0.00 | 0.00 | 64 | 1013.0 |
| 20260507114043 | 16 | 265 | 8.0 | 16.1 | 0.00 | 0.00 | 0.00 | 63 | 1013.1 |
| 20260507113544 | 16 | 275 | 8.0 | 20.9 | 0.00 | 0.00 | 0.00 | 62 | 1013.0 |
| 20260507113052 | 16 | 273 | 4.8 | 20.9 | 0.00 | 0.00 | 0.00 | 62 | 1013.1 |
| 20260507112543 | 16 | 273 | 9.7 | 20.9 | 0.00 | 0.00 | 0.00 | 63 | 1013.1 |
| 20260507112043 | 16 | 191 | 3.2 | 19.3 | 0.00 | 0.00 | 0.00 | 65 | 1013.0 |
| 20260507111559 | 16 | 263 | 6.4 | 19.3 | 0.00 | 0.00 | 0.00 | 63 | 1013.0 |
| 20260507111047 | 16 | 227 | 9.7 | 19.3 | 0.00 | 0.00 | 0.00 | 65 | 1013.0 |
| 20260507110544 | 16 | 300 | 11.3 | 19.3 | 0.00 | 0.00 | 0.00 | 64 | 1012.9 |
| 20260507110052 | 16 | 242 | 8.0 | 19.3 | 0.00 | 0.00 | 0.00 | 65 | 1012.9 |
| 20260507105543 | 16 | 311 | 8.0 | 17.7 | 0.00 | 0.00 | 0.00 | 65 | 1012.8 |
| 20260507105043 | 16 | 273 | 9.7 | 19.3 | 0.00 | 0.00 | 0.00 | 64 | 1012.9 |
| 20260507104559 | 16 | 265 | 8.0 | 19.3 | 0.00 | 0.00 | 0.00 | 64 | 1013.0 |
| 20260507104043 | 16 | 260 | 8.0 | 19.3 | 0.00 | 0.00 | 0.00 | 63 | 1012.9 |
| 20260507103543 | 16 | 239 | 8.0 | 22.5 | 0.00 | 0.00 | 0.00 | 64 | 1012.8 |
| 20260507103053 | 16 | 249 | 9.7 | 22.5 | 0.00 | 0.00 | 0.00 | 64 | 1012.8 |
| 20260507102544 | 16 | 269 | 6.4 | 19.3 | 0.00 | 0.00 | 0.00 | 64 | 1012.8 |
| 20260507102043 | 16 | 273 | 9.7 | 19.3 | 0.00 | 0.00 | 0.00 | 63 | 1012.8 |
| 20260507101554 | 16 | 301 | 6.4 | 22.5 | 0.00 | 0.00 | 0.00 | 66 | 1012.7 |
| 20260507101045 | 16 | 284 | 9.7 | 22.5 | 0.00 | 0.00 | 0.00 | 65 | 1012.6 |
| 20260507100544 | 15 | 258 | 9.7 | 24.1 | 0.00 | 0.00 | 0.00 | 67 | 1012.7 |
| 20260507100059 | 15 | 276 | 9.7 | 24.1 | 0.00 | 0.00 | 0.00 | 66 | 1012.6 |
| 20260507095544 | 15 | 279 | 11.3 | 22.5 | 0.00 | 0.00 | 0.00 | 68 | 1012.7 |
| 20260507095045 | 15 | 264 | 11.3 | 22.5 | 0.00 | 0.00 | 0.00 | 67 | 1012.6 |
| 20260507094557 | 15 | 292 | 8.0 | 20.9 | 0.00 | 0.00 | 0.00 | 68 | 1012.5 |
| 20260507094043 | 15 | 267 | 6.4 | 19.3 | 0.00 | 0.00 | 0.00 | 69 | 1012.5 |
| 20260507093544 | 15 | 300 | 11.3 | 19.3 | 0.00 | 0.00 | 0.00 | 68 | 1012.5 |
| 20260507093056 | 15 | 244 | 9.7 | 19.3 | 0.00 | 0.00 | 0.00 | 69 | 1012.4 |
| 20260507092545 | 15 | 272 | 8.0 | 19.3 | 0.00 | 0.00 | 0.00 | 69 | 1012.5 |
| 20260507092043 | 15 | 296 | 8.0 | 17.7 | 0.00 | 0.00 | 0.00 | 73 | 1012.3 |
| 20260507091554 | 14 | 268 | 9.7 | 17.7 | 0.00 | 0.00 | 0.00 | 72 | 1012.4 |
| 20260507091044 | 14 | 250 | 9.7 | 17.7 | 0.00 | 0.00 | 0.00 | 74 | 1012.3 |
| 20260507090544 | 13 | 306 | 8.0 | 17.7 | 0.00 | 0.00 | 0.00 | 75 | 1012.3 |
| 20260507090059 | 13 | 260 | 9.7 | 19.3 | 0.00 | 0.00 | 0.00 | 75 | 1012.2 |
| 20260507085544 | 13 | 248 | 6.4 | 19.3 | 0.00 | 0.00 | 0.00 | 76 | 1012.2 |
| 20260507085043 | 13 | 225 | 11.3 | 19.3 | 0.00 | 0.00 | 0.00 | 75 | 1012.2 |
| 20260507084555 | 13 | 252 | 4.8 | 19.3 | 0.00 | 0.00 | 0.00 | 78 | 1012.1 |
| 20260507084044 | 13 | 265 | 8.0 | 19.3 | 0.00 | 0.00 | 0.00 | 78 | 1012.1 |
| 20260507083544 | 13 | 287 | 9.7 | 22.5 | 0.00 | 0.00 | 0.00 | 78 | 1012.0 |
| 20260507083050 | 13 | 263 | 9.7 | 22.5 | 0.00 | 0.00 | 0.00 | 79 | 1012.0 |
| 20260507082544 | 13 | 261 | 8.0 | 19.3 | 0.00 | 0.00 | 0.00 | 80 | 1011.9 |
| 20260507082044 | 12 | 284 | 9.7 | 20.9 | 0.00 | 0.00 | 0.00 | 80 | 1011.9 |
| 20260507081556 | 12 | 292 | 6.4 | 20.9 | 0.00 | 0.00 | 0.00 | 82 | 1011.9 |
| 20260507081043 | 12 | 265 | 9.7 | 20.9 | 0.00 | 0.00 | 0.00 | 82 | 1011.9 |
| 20260507080544 | 12 | 297 | 11.3 | 20.9 | 0.00 | 0.00 | 0.00 | 82 | 1011.8 |
| 20260507080112 | 12 | 221 | 12.9 | 20.9 | 0.00 | 0.00 | 0.00 | 81 | 1011.7 |
| 20260507075544 | 12 | 273 | 12.9 | 20.9 | 0.00 | 0.00 | 0.00 | 82 | 1011.7 |
| 20260507075043 | 12 | 269 | 12.9 | 22.5 | 0.00 | 0.00 | 0.00 | 81 | 1011.8 |
| 20260507074557 | 12 | 279 | 8.0 | 22.5 | 0.00 | 0.00 | 0.00 | 82 | 1011.8 |
| 20260507074043 | 13 | 259 | 12.9 | 22.5 | 0.00 | 0.00 | 0.00 | 83 | 1011.9 |
| 20260507073546 | 13 | 248 | 6.4 | 22.5 | 0.00 | 0.00 | 0.00 | 84 | 1011.6 |
| 20260507073053 | 12 | 266 | 9.7 | 22.5 | 0.00 | 0.00 | 0.00 | 83 | 1011.7 |
| 20260507072544 | 12 | 290 | 12.9 | 22.5 | 0.00 | 0.00 | 0.00 | 83 | 1011.6 |
| 20260507072042 | 13 | 246 | 14.5 | 25.7 | 0.00 | 0.00 | 0.00 | 82 | 1011.6 |
| 20260507071553 | 13 | 282 | 12.9 | 25.7 | 0.00 | 0.00 | 0.00 | 82 | 1011.5 |
| 20260507071044 | 13 | 271 | 12.9 | 24.1 | 0.00 | 0.00 | 0.00 | 82 | 1011.4 |
| 20260507070544 | 12 | 265 | 12.9 | 20.9 | 0.00 | 0.00 | 0.00 | 83 | 1011.3 |
| 20260507070103 | 12 | 242 | 11.3 | 17.7 | 0.00 | 0.00 | 0.00 | 83 | 1011.2 |
| 20260507065547 | 12 | 261 | 8.0 | 20.9 | 0.00 | 0.00 | 0.00 | 83 | 1011.3 |
| 20260507065043 | 12 | 289 | 11.3 | 20.9 | 0.00 | 0.00 | 0.00 | 83 | 1011.3 |
| 20260507064625 | 12 | 292 | 9.7 | 19.3 | 0.00 | 0.00 | 0.00 | 83 | 1011.2 |
| 20260507064043 | 12 | 246 | 4.8 | 19.3 | 0.00 | 0.00 | 0.00 | 85 | 1011.1 |
| 20260507063544 | 12 | 289 | 8.0 | 19.3 | 0.00 | 0.00 | 0.00 | 85 | 1011.2 |
| 20260507063117 | 12 | 267 | 9.7 | 17.7 | 0.00 | 0.00 | 0.00 | 86 | 1011.0 |
| 20260507062543 | 12 | 290 | 6.4 | 16.1 | 0.00 | 0.00 | 0.00 | 88 | 1011.0 |
| 20260507062043 | 12 | 257 | 4.8 | 12.9 | 0.00 | 0.00 | 0.00 | 89 | 1010.9 |
| 20260507061552 | 12 | 0 | 0.0 | 4.8 | 0.00 | 0.00 | 0.00 | 90 | 1010.9 |
| 20260507061042 | 11 | 208 | 0.0 | 4.8 | 0.00 | 0.00 | 0.00 | 90 | 1010.8 |
| 20260507060542 | 11 | 214 | 1.6 | 8.0 | 0.00 | 0.00 | 0.00 | 89 | 1010.9 |
| 20260507060110 | 11 | 282 | 1.6 | 8.0 | 0.00 | 0.00 | 0.00 | 89 | 1010.9 |
| 20260507055545 | 11 | 0 | 3.2 | 8.0 | 0.00 | 0.00 | 0.00 | 89 | 1010.9 |
| 20260507055043 | 11 | 0 | 1.6 | 8.0 | 0.00 | 0.00 | 0.00 | 89 | 1010.9 |
| 20260507054557 | 11 | 242 | 1.6 | 6.4 | 0.00 | 0.00 | 0.00 | 89 | 1010.8 |
| 20260507054045 | 11 | 297 | 0.0 | 11.3 | 0.00 | 0.00 | 0.00 | 88 | 1010.7 |
| 20260507053545 | 11 | 329 | 1.6 | 11.3 | 0.00 | 0.00 | 0.00 | 88 | 1010.6 |
| 20260507053058 | 11 | 295 | 1.6 | 11.3 | 0.00 | 0.00 | 0.00 | 88 | 1010.5 |
| 20260507052544 | 11 | 197 | 1.6 | 4.8 | 0.00 | 0.00 | 0.00 | 89 | 1010.4 |
| 20260507052044 | 11 | 270 | 0.0 | 3.2 | 0.00 | 0.00 | 0.00 | 89 | 1010.4 |
| 20260507051605 | 11 | 280 | 0.0 | 4.8 | 0.00 | 0.00 | 0.00 | 89 | 1010.4 |
| 20260507051045 | 11 | 0 | 0.0 | 4.8 | 0.00 | 0.00 | 0.00 | 89 | 1010.3 |
| 20260507050544 | 11 | 280 | 0.0 | 3.2 | 0.00 | 0.00 | 0.00 | 89 | 1010.3 |
| 20260507050057 | 11 | 280 | 0.0 | 3.2 | 0.00 | 0.00 | 0.00 | 90 | 1010.2 |
| 20260507045545 | 11 | 274 | 0.0 | 3.2 | 0.00 | 0.00 | 0.00 | 90 | 1010.1 |
| 20260507045045 | 11 | 0 | 0.0 | 3.2 | 0.00 | 0.00 | 0.00 | 89 | 1010.1 |
| 20260507044558 | 11 | 0 | 0.0 | 1.6 | 0.00 | 0.00 | 0.00 | 89 | 1009.9 |
| 20260507044048 | 11 | 0 | 0.0 | 1.6 | 0.00 | 0.00 | 0.00 | 89 | 1009.8 |
| 20260507043545 | 11 | 0 | 0.0 | 1.6 | 0.00 | 0.00 | 0.00 | 88 | 1009.8 |
| 20260507043056 | 11 | 0 | 0.0 | 1.6 | 0.00 | 0.00 | 0.00 | 88 | 1009.8 |
| 20260507042545 | 11 | 0 | 0.0 | 3.2 | 0.00 | 0.00 | 0.00 | 87 | 1009.8 |
| 20260507042044 | 11 | 0 | 0.0 | 3.2 | 0.00 | 0.00 | 0.00 | 87 | 1009.6 |
| 20260507041600 | 11 | 113 | 1.6 | 3.2 | 0.00 | 0.00 | 0.00 | 88 | 1009.4 |
| 20260507041044 | 11 | 0 | 0.0 | 0.0 | 0.00 | 0.00 | 0.00 | 88 | 1009.4 |
| 20260507040545 | 11 | 0 | 0.0 | 1.6 | 0.00 | 0.00 | 0.00 | 88 | 1009.3 |
| 20260507040057 | 11 | 0 | 0.0 | 4.8 | 0.00 | 0.00 | 0.00 | 88 | 1009.2 |
| 20260507035544 | 11 | 0 | 0.0 | 4.8 | 0.00 | 0.00 | 0.00 | 88 | 1009.2 |
| 20260507035045 | 11 | 113 | 0.0 | 6.4 | 0.00 | 0.00 | 0.00 | 88 | 1009.0 |
| 20260507034557 | 11 | 0 | 0.0 | 9.7 | 0.00 | 0.00 | 0.00 | 88 | 1009.0 |